Time;durP1;ratioP1;P1;durP2;ratioP2;P2;SDS_P1;SDS_P2;PMS_P1;PMS_P2;Temp;Humidity;BMP_temperature;BMP_pressure;BME280_temperature;BME280_humidity;BME280_pressure;Samples;Min_cycle;Max_cycle;Signal;HPM_P1;HPM_P2
2022/09/15 00:02:26;;;;;;;6.05;2.63;;;;;;;16.09;91.75;93154.22;5012553;28;20041;-68
2022/09/15 00:04:53;;;;;;;5.32;2.40;;;;;;;16.03;91.41;93161.63;5012497;28;20099;-66
2022/09/15 00:07:19;;;;;;;6.13;2.57;;;;;;;16.01;91.06;93157.81;5012364;28;20557;-65
2022/09/15 00:09:46;;;;;;;5.07;2.50;;;;;;;15.95;91.30;93161.19;5012037;28;20046;-65
2022/09/15 00:12:13;;;;;;;6.22;2.47;;;;;;;15.95;91.12;93146.59;5012124;28;20046;-65
2022/09/15 00:14:40;;;;;;;6.72;2.80;;;;;;;15.85;91.68;93156.94;5012080;28;20041;-68
2022/09/15 00:17:06;;;;;;;5.43;3.20;;;;;;;15.85;92.08;93161.72;5011617;28;20046;-65
2022/09/15 00:19:34;;;;;;;5.23;3.00;;;;;;;15.83;91.84;93150.34;5012302;28;20049;-67
2022/09/15 00:22:01;;;;;;;5.40;2.72;;;;;;;15.72;92.32;93153.63;5011797;28;20054;-65
2022/09/15 00:24:27;;;;;;;5.68;2.60;;;;;;;15.68;92.21;93145.47;5012373;28;20628;-65
2022/09/15 00:26:55;;;;;;;6.82;2.80;;;;;;;15.68;92.24;93144.72;5011986;28;20069;-65
2022/09/15 00:29:22;;;;;;;5.65;2.40;;;;;;;15.53;92.96;93145.38;5011941;28;20065;-68
2022/09/15 00:31:49;;;;;;;5.97;3.20;;;;;;;15.57;92.67;93140.47;5011886;28;20048;-68
2022/09/15 00:34:15;;;;;;;6.38;3.03;;;;;;;15.62;92.01;93127.22;5011760;28;20053;-65
2022/09/15 00:36:42;;;;;;;5.30;2.42;;;;;;;15.53;91.66;93133.53;5012063;28;20046;-65
2022/09/15 00:39:09;;;;;;;5.18;2.10;;;;;;;15.60;90.96;93129.69;5011131;28;20046;-65
2022/09/15 00:41:38;;;;;;;6.82;2.40;;;;;;;15.68;89.98;93125.34;5011857;28;20052;-65
2022/09/15 00:44:34;;;;;;;5.57;2.27;;;;;;;15.70;89.56;93123.66;5011005;28;20461;-66
2022/09/15 00:47:03;;;;;;;5.20;2.30;;;;;;;15.63;90.26;93117.69;5011202;28;20049;-65
2022/09/15 00:49:47;;;;;;;4.47;2.25;;;;;;;15.62;90.18;93099.56;5010864;28;20050;-66
2022/09/15 00:52:33;;;;;;;5.10;2.45;;;;;;;15.51;90.44;93106.38;5011321;28;20053;-68
2022/09/15 00:55:10;;;;;;;4.45;2.30;;;;;;;15.40;90.79;93108.88;5011050;28;20042;-65
2022/09/15 00:57:48;;;;;;;4.63;2.30;;;;;;;15.34;90.95;93108.72;5011967;28;20111;-65
2022/09/15 01:00:17;;;;;;;4.28;2.30;;;;;;;15.35;91.04;93110.28;5011184;28;20458;-65
2022/09/15 01:02:46;;;;;;;5.22;2.40;;;;;;;15.39;90.40;93110.09;5011625;28;20396;-66
2022/09/15 01:05:16;;;;;;;4.18;2.20;;;;;;;15.13;92.21;93110.50;5010978;28;20049;-65
2022/09/15 01:07:50;;;;;;;55.70;29.55;;;;;;;15.28;91.10;93109.84;5011593;28;20038;-66
2022/09/15 01:10:33;;;;;;;6.83;3.70;;;;;;;15.13;91.24;93109.72;5010723;28;20054;-65
2022/09/15 01:13:03;;;;;;;4.22;2.10;;;;;;;15.23;90.66;93111.25;5010762;28;20446;-66
2022/09/15 01:16:08;;;;;;;4.85;2.67;;;;;;;15.08;91.48;93111.09;5009841;28;20056;-65
2022/09/15 01:19:00;;;;;;;5.45;2.40;;;;;;;15.15;90.66;93112.78;4997712;28;20936;-65
2022/09/15 01:21:49;;;;;;;5.57;2.28;;;;;;;15.17;89.81;93102.81;5010485;28;20514;-67
2022/09/15 01:24:29;;;;;;;3.93;2.07;;;;;;;15.28;88.88;93107.81;5010908;28;20038;-65
2022/09/15 01:27:02;;;;;;;5.75;1.90;;;;;;;15.32;89.03;93107.66;5010882;28;20042;-67
2022/09/15 01:29:51;;;;;;;4.03;1.90;;;;;;;15.36;88.07;93105.50;5010031;28;20684;-71
2022/09/15 01:35:27;;;;;;;4.13;1.65;;;;;;;15.37;86.97;93093.97;5003308;28;20052;-65
2022/09/15 01:38:07;;;;;;;3.23;1.70;;;;;;;15.42;85.84;93092.56;5010661;28;20076;-66
2022/09/15 01:40:54;;;;;;;3.30;1.75;;;;;;;15.42;85.64;93086.28;5010083;28;20693;-65
2022/09/15 01:43:24;;;;;;;4.15;2.00;;;;;;;15.33;86.10;93079.56;5010189;28;20491;-65
2022/09/15 01:45:52;;;;;;;3.10;1.80;;;;;;;15.25;87.58;93074.81;5010280;28;20037;-65
2022/09/15 01:48:22;;;;;;;4.10;1.70;;;;;;;15.32;86.82;93075.25;5010482;28;20048;-65
2022/09/15 01:50:54;;;;;;;4.30;1.43;;;;;;;15.30;85.98;93083.25;5010640;28;20159;-68
2022/09/15 01:53:22;;;;;;;4.25;1.50;;;;;;;15.27;85.19;93078.66;5009764;28;20419;-67
2022/09/15 01:56:08;;;;;;;4.35;1.77;;;;;;;15.40;83.52;93078.47;5010412;28;20419;-71
2022/09/15 01:58:38;;;;;;;2.95;1.55;;;;;;;15.37;84.13;93080.16;5009727;28;20678;-66
2022/09/15 02:01:11;;;;;;;4.03;1.77;;;;;;;15.29;84.68;93083.72;5009966;28;20050;-66
2022/09/15 02:03:54;;;;;;;4.63;1.50;;;;;;;15.21;85.22;93094.31;5010717;28;20045;-65
2022/09/15 02:06:32;;;;;;;3.95;1.50;;;;;;;15.14;85.76;93084.38;5010209;28;20045;-65
2022/09/15 02:09:10;;;;;;;5.20;1.83;;;;;;;15.03;86.51;93088.84;5009691;28;20114;-69
2022/09/15 02:11:44;;;;;;;4.95;1.38;;;;;;;14.96;86.66;93092.72;5010394;28;20042;-66
2022/09/15 02:14:16;;;;;;;3.08;1.50;;;;;;;14.95;86.41;93091.16;5009852;28;20046;-67
2022/09/15 02:16:46;;;;;;;4.47;1.60;;;;;;;14.86;86.35;93080.91;5010469;28;20068;-68
2022/09/15 02:19:29;;;;;;;7.38;4.03;;;;;;;14.90;86.25;93083.53;5007758;28;20053;-66
2022/09/15 02:22:06;;;;;;;6.35;2.30;;;;;;;14.85;86.42;93090.44;5007850;28;20042;-65
2022/09/15 02:24:41;;;;;;;4.55;1.60;;;;;;;14.76;86.71;93082.16;5009582;28;20671;-66
2022/09/15 02:27:15;;;;;;;4.00;1.70;;;;;;;14.82;86.63;93083.06;5009319;28;20048;-65
2022/09/15 02:29:46;;;;;;;3.47;1.50;;;;;;;14.63;87.62;93081.56;5010108;28;20117;-68
2022/09/15 02:32:16;;;;;;;5.45;1.40;;;;;;;14.55;88.11;93089.38;5009105;28;20415;-65
2022/09/15 02:34:47;;;;;;;3.83;1.73;;;;;;;14.57;87.98;93090.47;5010093;28;20044;-65
2022/09/15 02:37:13;;;;;;;4.10;1.40;;;;;;;14.64;87.61;93097.69;5009405;28;20418;-68
2022/09/15 02:39:46;;;;;;;3.17;1.50;;;;;;;14.70;86.06;93087.53;5013858;28;20054;-65
2022/09/15 02:42:23;;;;;;;3.17;1.50;;;;;;;14.64;87.05;93092.16;5007785;28;20049;-65
2022/09/15 02:44:50;;;;;;;3.53;1.60;;;;;;;14.65;86.32;93096.47;5009895;28;20038;-65
2022/09/15 02:47:17;;;;;;;4.80;1.60;;;;;;;14.77;85.57;93089.25;5009200;28;20081;-65
2022/09/15 02:49:43;;;;;;;4.00;1.42;;;;;;;14.75;85.71;93089.69;5010157;28;20053;-65
2022/09/15 02:52:10;;;;;;;5.25;1.40;;;;;;;14.71;85.11;93091.84;5009194;28;20136;-66
2022/09/15 02:54:37;;;;;;;4.90;1.40;;;;;;;14.76;85.07;93085.69;5008791;28;20641;-68
2022/09/15 02:57:04;;;;;;;3.10;1.25;;;;;;;14.73;84.99;93081.09;5009102;28;20161;-65
2022/09/15 03:00:11;;;;;;;3.60;1.80;;;;;;;14.60;86.32;93076.97;5008656;28;20044;-68
2022/09/15 03:02:19;;;;;;;3.00;1.70;;;;;;;14.59;85.80;93076.22;5009335;28;20054;-68
2022/09/15 03:04:47;;;;;;;3.65;1.42;;;;;;;14.66;85.40;93077.88;5011361;28;20072;-66
2022/09/15 03:07:14;;;;;;;4.00;1.60;;;;;;;14.56;85.98;93090.94;5013211;28;20052;-65
2022/09/15 03:09:41;;;;;;;2.50;1.13;;;;;;;14.53;86.32;93087.06;5013691;28;20052;-68
2022/09/15 03:12:08;;;;;;;4.50;1.40;;;;;;;14.63;85.98;93087.09;5012619;28;20054;-65
2022/09/15 03:14:35;;;;;;;3.67;1.70;;;;;;;14.58;86.03;93091.25;5011976;28;20053;-66
2022/09/15 03:17:02;;;;;;;3.80;1.45;;;;;;;14.50;86.00;93092.75;5012932;28;20069;-65
2022/09/15 03:19:28;;;;;;;4.50;1.43;;;;;;;14.55;86.07;93090.16;5009476;28;20047;-66
2022/09/15 03:21:55;;;;;;;2.47;1.20;;;;;;;14.61;86.05;93092.31;5013046;28;20041;-71
2022/09/15 03:24:22;;;;;;;2.80;1.40;;;;;;;14.64;85.76;93086.63;5013163;28;20052;-65
2022/09/15 03:26:49;;;;;;;3.50;1.40;;;;;;;14.68;85.68;93089.25;5013440;28;20721;-65
2022/09/15 03:29:15;;;;;;;3.70;1.60;;;;;;;14.61;85.91;93087.56;5012295;28;20054;-65
2022/09/15 03:31:42;;;;;;;4.10;1.70;;;;;;;14.66;85.67;93075.13;5013162;28;20050;-68
2022/09/15 03:34:09;;;;;;;3.83;1.60;;;;;;;14.79;84.81;93070.22;5012340;28;20046;-67
2022/09/15 03:36:35;;;;;;;2.88;1.38;;;;;;;14.82;84.44;93074.78;5013060;28;20046;-65
2022/09/15 03:39:02;;;;;;;3.45;1.20;;;;;;;14.91;84.10;93080.31;5011199;28;20053;-66
2022/09/15 03:41:29;;;;;;;3.13;1.30;;;;;;;14.96;83.74;93062.31;5013231;28;20091;-69
2022/09/15 03:43:55;;;;;;;2.80;1.50;;;;;;;15.08;83.01;93077.94;5012750;28;20152;-71
2022/09/15 03:46:22;;;;;;;3.40;1.30;;;;;;;15.11;83.10;93073.47;5012695;28;20052;-66
2022/09/15 03:48:49;;;;;;;3.38;1.30;;;;;;;15.14;82.50;93080.84;5013012;28;20119;-66
2022/09/15 03:51:15;;;;;;;2.60;1.20;;;;;;;15.18;82.08;93086.97;5011003;28;20068;-65
2022/09/15 03:53:42;;;;;;;3.40;1.85;;;;;;;15.27;81.08;93083.41;5012902;28;20598;-67
2022/09/15 03:56:26;;;;;;;6.07;3.30;;;;;;;15.35;81.65;93092.91;5012283;28;20049;-66
2022/09/15 03:58:53;;;;;;;3.97;1.58;;;;;;;15.05;83.60;93078.88;5012760;28;20068;-67
2022/09/15 04:01:20;;;;;;;3.35;1.35;;;;;;;15.11;84.66;93079.78;5012393;28;20099;-65
2022/09/15 04:03:47;;;;;;;2.92;1.30;;;;;;;15.22;85.39;93084.06;5012720;28;20380;-65
2022/09/15 04:06:19;;;;;;;4.40;1.70;;;;;;;15.18;84.52;93087.75;5011398;28;20054;-65
2022/09/15 04:08:46;;;;;;;3.80;1.53;;;;;;;15.34;82.88;93085.84;5012631;28;20380;-65
2022/09/15 04:11:13;;;;;;;2.55;1.20;;;;;;;15.39;82.59;93087.97;5011658;28;20045;-65
2022/09/15 04:13:41;;;;;;;4.90;1.70;;;;;;;15.34;85.73;93092.13;5012725;28;20037;-66
2022/09/15 04:16:11;;;;;;;3.35;1.60;;;;;;;15.29;85.09;93083.72;5011216;28;20099;-67
2022/09/15 04:18:38;;;;;;;4.15;1.83;;;;;;;15.12;87.80;93092.38;5012432;28;20099;-65
2022/09/15 04:21:09;;;;;;;3.83;1.50;;;;;;;15.23;86.34;93086.38;5006966;28;20419;-66
2022/09/15 04:23:36;;;;;;;3.45;1.67;;;;;;;15.10;85.86;93081.00;5012146;28;20472;-65
2022/09/15 04:26:06;;;;;;;4.80;1.40;;;;;;;15.21;85.83;93082.50;5011425;28;20037;-65
2022/09/15 04:28:36;;;;;;;3.20;1.60;;;;;;;15.29;85.48;93078.19;5010844;28;20522;-65
2022/09/15 04:31:05;;;;;;;3.40;1.60;;;;;;;15.26;85.80;93085.41;5011446;28;20050;-68
2022/09/15 04:33:32;;;;;;;4.60;1.53;;;;;;;15.30;86.08;93085.25;5011978;28;20057;-65
2022/09/15 04:36:00;;;;;;;5.20;1.80;;;;;;;15.34;86.74;93085.84;5011530;28;20483;-72
2022/09/15 04:38:27;;;;;;;3.58;1.73;;;;;;;15.22;87.63;93081.28;5011735;28;20048;-65
2022/09/15 04:40:54;;;;;;;3.70;1.70;;;;;;;15.08;89.04;93080.72;5011800;28;20042;-65
2022/09/15 04:43:21;;;;;;;4.70;1.83;;;;;;;15.07;89.05;93083.94;5011153;28;20415;-68
2022/09/15 04:45:48;;;;;;;3.40;1.53;;;;;;;15.06;89.24;93090.69;4997956;28;20103;-66
2022/09/15 04:48:15;;;;;;;3.85;1.50;;;;;;;15.06;89.33;93085.94;5011201;28;20049;-69
2022/09/15 04:50:41;;;;;;;3.95;1.45;;;;;;;14.97;90.08;93099.78;5011542;28;20462;-65
2022/09/15 04:53:08;;;;;;;4.20;1.40;;;;;;;15.05;89.60;93095.47;5010845;28;20053;-65
2022/09/15 04:55:35;;;;;;;2.95;1.45;;;;;;;15.13;89.32;93095.88;5011558;28;20391;-65
2022/09/15 04:58:03;;;;;;;3.23;1.53;;;;;;;15.10;87.30;93083.78;5010898;28;20445;-66
2022/09/15 05:00:31;;;;;;;4.38;1.65;;;;;;;15.02;87.98;93085.34;5008352;28;20072;-66
2022/09/15 05:02:58;;;;;;;2.85;1.58;;;;;;;15.18;88.35;93087.75;4998211;28;20072;-63
2022/09/15 05:05:25;;;;;;;3.35;1.50;;;;;;;15.24;88.33;93087.88;5005861;28;20703;-68
2022/09/15 05:07:52;;;;;;;4.20;1.65;;;;;;;15.18;88.83;93084.22;5011202;28;20042;-65
2022/09/15 05:10:19;;;;;;;4.10;1.63;;;;;;;15.06;89.60;93088.69;5010577;28;20422;-65
2022/09/15 05:12:46;;;;;;;6.22;2.00;;;;;;;15.00;90.50;93089.81;5010498;28;20045;-65
2022/09/15 05:15:12;;;;;;;4.43;1.88;;;;;;;15.12;89.85;93081.31;5010202;28;20407;-66
2022/09/15 05:17:39;;;;;;;4.45;1.90;;;;;;;15.15;89.77;93087.91;5010858;28;20049;-68
2022/09/15 05:20:06;;;;;;;4.97;1.95;;;;;;;15.22;89.91;93086.81;5010341;28;20053;-66
2022/09/15 05:22:33;;;;;;;3.57;1.80;;;;;;;15.25;89.69;93075.59;5011090;28;20553;-68
2022/09/15 05:25:05;;;;;;;5.00;2.20;;;;;;;15.25;90.50;93080.34;5010106;28;20049;-66
2022/09/15 05:27:32;;;;;;;4.00;1.95;;;;;;;15.25;90.00;93074.81;5010311;28;20053;-65
2022/09/15 05:29:59;;;;;;;4.20;1.80;;;;;;;15.23;90.00;93083.59;5010392;28;20107;-66
2022/09/15 05:32:46;;;;;;;3.63;2.00;;;;;;;15.04;91.32;93079.34;5010903;28;20446;-66
2022/09/15 05:35:12;;;;;;;5.70;1.83;;;;;;;15.10;90.37;93075.47;5010202;28;20042;-65
2022/09/15 05:37:39;;;;;;;5.68;1.95;;;;;;;15.14;90.68;93084.38;5010864;28;20042;-65
2022/09/15 05:40:06;;;;;;;5.75;1.92;;;;;;;15.14;89.94;93078.84;5009856;28;20403;-67
2022/09/15 05:42:34;;;;;;;4.68;2.00;;;;;;;14.88;91.77;93077.69;5010764;28;20077;-68
2022/09/15 05:45:01;;;;;;;4.97;2.30;;;;;;;14.83;92.62;93072.78;5024818;28;20046;-67
2022/09/15 05:47:27;;;;;;;4.70;2.07;;;;;;;14.86;92.75;93071.88;5010717;28;20491;-65
2022/09/15 05:49:54;;;;;;;5.13;2.10;;;;;;;15.01;91.70;93074.75;5010698;28;20050;-65
2022/09/15 05:52:21;;;;;;;4.50;2.17;;;;;;;15.11;91.01;93073.47;5009539;28;20491;-65
2022/09/15 05:54:47;;;;;;;4.97;2.35;;;;;;;15.00;90.76;93073.22;5010616;28;20446;-66
2022/09/15 05:57:14;;;;;;;4.68;2.25;;;;;;;15.00;90.82;93073.22;5009827;28;20037;-67
2022/09/15 05:59:42;;;;;;;4.23;2.00;;;;;;;14.95;91.35;93069.84;5010461;28;20052;-66
2022/09/15 06:02:10;;;;;;;5.68;1.88;;;;;;;14.88;91.93;93063.88;5009593;28;20388;-66
2022/09/15 06:04:37;;;;;;;6.97;2.22;;;;;;;15.01;91.70;93064.47;5010308;28;20073;-66
2022/09/15 06:07:04;;;;;;;4.35;2.13;;;;;;;15.19;90.85;93063.63;5009894;28;20049;-70
2022/09/15 06:09:31;;;;;;;4.80;2.00;;;;;;;15.34;90.21;93070.03;5010463;28;20046;-66
2022/09/15 06:11:57;;;;;;;5.23;2.37;;;;;;;15.38;90.23;93072.63;5009002;28;20054;-66
2022/09/15 06:14:24;;;;;;;6.82;2.38;;;;;;;15.10;90.08;93075.47;5008959;28;20832;-66
2022/09/15 06:16:51;;;;;;;4.78;2.38;;;;;;;15.12;90.70;93080.56;5007095;28;20042;-67
2022/09/15 06:19:18;;;;;;;3.95;2.10;;;;;;;15.33;90.04;93078.78;4998568;28;20046;-65
2022/09/15 06:21:45;;;;;;;3.50;1.98;;;;;;;15.17;89.99;93088.19;5009894;28;20041;-66
2022/09/15 06:24:11;;;;;;;3.37;1.77;;;;;;;15.15;89.39;93088.69;4994455;28;20716;-68
2022/09/15 06:26:38;;;;;;;4.75;1.85;;;;;;;15.54;89.24;93083.31;5009637;28;20103;-66
2022/09/15 06:29:05;;;;;;;6.10;2.25;;;;;;;15.75;88.11;93072.47;5009212;28;20414;-72
2022/09/15 06:31:32;;;;;;;3.80;1.90;;;;;;;15.97;85.46;93080.50;5008148;28;20038;-70
2022/09/15 06:34:02;;;;;;;4.72;2.17;;;;;;;16.32;83.82;93086.25;5006621;28;20038;-66
2022/09/15 06:36:29;;;;;;;4.03;1.70;;;;;;;16.86;81.18;93085.50;5009382;28;20402;-67
2022/09/15 06:38:57;;;;;;;4.47;1.90;;;;;;;17.17;78.75;93082.28;5009422;28;20046;-67
2022/09/15 06:41:24;;;;;;;4.45;1.90;;;;;;;17.69;77.17;93081.84;5008309;28;21653;-67
2022/09/15 06:43:51;;;;;;;3.10;1.50;;;;;;;17.29;76.16;93089.53;5008603;28;20483;-67
2022/09/15 06:46:21;;;;;;;3.92;1.60;;;;;;;17.24;77.77;93089.44;5007455;28;20147;-67
2022/09/15 06:48:50;;;;;;;6.13;1.80;;;;;;;18.38;75.04;93078.72;5009394;28;20042;-66
2022/09/15 06:51:18;;;;;;;3.83;1.50;;;;;;;18.62;69.39;93084.81;5008337;28;20099;-67
2022/09/15 06:53:45;;;;;;;3.63;1.40;;;;;;;19.05;67.87;93085.03;5007649;28;20053;-66
2022/09/15 06:56:22;;;;;;;3.53;1.77;;;;;;;19.07;67.61;93085.31;5008628;28;20046;-66
2022/09/15 06:58:49;;;;;;;4.97;1.30;;;;;;;19.44;66.52;93095.00;5008505;28;20046;-68
2022/09/15 07:01:26;;;;;;;4.20;1.40;;;;;;;19.70;64.99;93094.97;5005169;28;20103;-65
2022/09/15 07:03:53;;;;;;;3.92;1.23;;;;;;;20.65;61.54;93091.22;4999868;28;20045;-68
2022/09/15 07:06:21;;;;;;;3.75;1.27;;;;;;;22.69;55.52;93101.88;5008507;28;20385;-69
2022/09/15 07:08:48;;;;;;;2.42;1.10;;;;;;;24.18;50.82;93097.63;5009508;28;20038;-66
2022/09/15 07:11:17;;;;;;;3.17;1.15;;;;;;;23.33;52.51;93101.84;5006234;28;20406;-66
2022/09/15 07:13:44;;;;;;;3.27;1.27;;;;;;;20.07;60.35;93111.69;5006772;28;20046;-68
2022/09/15 07:16:12;;;;;;;2.33;1.05;;;;;;;20.67;61.03;93117.34;5007188;28;20042;-66
2022/09/15 07:18:39;;;;;;;2.72;1.20;;;;;;;20.55;60.75;93118.53;5008949;28;20042;-65
2022/09/15 07:21:14;;;;;;;3.78;1.20;;;;;;;19.31;64.49;93123.22;5007225;28;20045;-66
2022/09/15 07:23:41;;;;;;;3.05;1.20;;;;;;;19.50;65.11;93112.50;5009097;28;20049;-66
2022/09/15 07:26:10;;;;;;;3.07;1.20;;;;;;;19.76;64.35;93118.06;5007535;28;20042;-68
2022/09/15 07:28:38;;;;;;;3.50;1.10;;;;;;;19.67;62.69;93116.19;5007833;28;20380;-70
2022/09/15 07:31:08;;;;;;;2.30;1.10;;;;;;;19.90;63.88;93119.94;5022668;28;20099;-66
2022/09/15 07:33:35;;;;;;;3.50;1.20;;;;;;;20.14;62.23;93124.38;5009132;28;20051;-66
2022/09/15 07:36:03;;;;;;;2.58;0.90;;;;;;;20.54;60.50;93120.56;5001417;28;20046;-69
2022/09/15 07:38:30;;;;;;;2.90;1.13;;;;;;;20.91;60.01;93127.31;5008476;28;20046;-67
2022/09/15 07:41:31;;;;;;;2.40;0.90;;;;;;;20.59;59.21;93121.88;4996978;28;20047;-66
2022/09/15 07:43:59;;;;;;;2.83;0.95;;;;;;;20.85;59.65;93121.72;4983713;28;20893;-66
2022/09/15 07:46:29;;;;;;;2.22;1.00;;;;;;;20.14;60.54;93127.94;5006217;28;20869;-67
2022/09/15 07:48:56;;;;;;;3.13;1.00;;;;;;;20.11;61.43;93134.50;5009018;28;20422;-66
2022/09/15 07:51:24;;;;;;;2.37;0.83;;;;;;;19.69;60.39;93135.19;5005330;28;20195;-66
2022/09/15 07:53:51;;;;;;;2.22;0.90;;;;;;;19.36;62.23;93141.97;5012616;28;20046;-68
2022/09/15 07:56:19;;;;;;;3.40;1.00;;;;;;;18.93;64.61;93145.34;5011625;28;20526;-67
2022/09/15 07:58:47;;;;;;;3.95;0.90;;;;;;;19.09;63.85;93152.31;5011819;28;20046;-68
2022/09/15 08:01:15;;;;;;;3.30;1.20;;;;;;;19.10;63.98;93148.31;5011346;28;20034;-66
2022/09/15 08:03:45;;;;;;;2.17;0.90;;;;;;;19.08;64.15;93153.59;5012564;28;20041;-66
2022/09/15 08:06:12;;;;;;;2.00;0.90;;;;;;;18.98;65.23;93165.38;5010942;28;20056;-66
2022/09/15 08:08:40;;;;;;;3.08;0.80;;;;;;;19.13;63.98;93160.44;5012152;28;20111;-65
2022/09/15 08:11:08;;;;;;;3.22;0.90;;;;;;;19.29;63.34;93167.44;5010301;28;20104;-68
2022/09/15 08:13:35;;;;;;;2.35;1.02;;;;;;;19.42;63.87;93162.28;5011650;28;20045;-66
2022/09/15 08:16:09;;;;;;;2.20;0.90;;;;;;;19.56;63.49;93161.38;5011404;28;20049;-66
2022/09/15 08:18:38;;;;;;;3.25;1.35;;;;;;;19.45;64.56;93166.84;5011842;28;20068;-66
2022/09/15 08:21:11;;;;;;;3.03;1.10;;;;;;;19.42;64.55;93161.50;5011046;28;20041;-65
2022/09/15 08:23:38;;;;;;;2.53;1.13;;;;;;;19.25;65.32;93173.22;5011901;28;20060;-65
2022/09/15 08:26:06;;;;;;;4.00;0.80;;;;;;;18.99;65.83;93170.41;5010221;28;20071;-66
2022/09/15 08:28:39;;;;;;;2.50;0.90;;;;;;;19.38;65.88;93172.88;5011302;28;20620;-66
2022/09/15 08:31:08;;;;;;;2.40;1.10;;;;;;;19.40;64.93;93170.34;5011397;28;20040;-66
2022/09/15 08:33:34;;;;;;;3.17;0.90;;;;;;;19.34;64.55;93178.63;5011684;28;20038;-66
2022/09/15 08:36:09;;;;;;;2.55;0.82;;;;;;;19.22;64.43;93167.91;5010667;28;20056;-67
2022/09/15 08:38:40;;;;;;;3.83;1.13;;;;;;;18.71;66.71;93172.84;5011195;28;20477;-67
2022/09/15 08:41:11;;;;;;;2.80;1.10;;;;;;;18.84;68.11;93178.09;5010989;28;20046;-68
2022/09/15 08:43:47;;;;;;;3.67;1.30;;;;;;;18.52;69.55;93183.47;5011234;28;20046;-66
2022/09/15 08:46:21;;;;;;;2.17;1.00;;;;;;;18.82;71.42;93183.38;5010400;28;20046;-66
2022/09/15 08:48:58;;;;;;;2.38;1.20;;;;;;;19.41;66.54;93183.00;5011065;28;20411;-66
2022/09/15 08:51:47;;;;;;;2.95;1.15;;;;;;;19.22;66.45;93176.25;5009706;28;20419;-66
2022/09/15 08:54:20;;;;;;;2.37;1.00;;;;;;;19.27;67.44;93183.88;5010352;28;20099;-67
2022/09/15 08:56:47;;;;;;;2.80;1.20;;;;;;;19.12;68.03;93179.16;5011835;28;20487;-69
2022/09/15 08:59:16;;;;;;;3.45;1.23;;;;;;;19.45;67.96;93175.19;5010078;28;20042;-66
2022/09/15 09:02:20;;;;;;;2.50;1.10;;;;;;;19.94;65.78;93169.81;5010517;28;20069;-66
2022/09/15 09:05:23;;;;;;;2.88;1.30;;;;;;;22.12;59.62;93176.72;5010625;28;20446;-69
2022/09/15 09:07:59;;;;;;;3.90;1.10;;;;;;;21.35;61.98;93170.56;4999570;28;20622;-66
2022/09/15 09:10:52;;;;;;;3.53;1.27;;;;;;;20.14;65.71;93166.94;5010143;28;20053;-69
2022/09/15 09:13:37;;;;;;;3.33;1.55;;;;;;;20.29;64.95;93169.56;5010189;28;20057;-68
2022/09/15 09:16:26;;;;;;;3.00;1.20;;;;;;;21.37;61.66;93165.22;5010374;28;20049;-67
2022/09/15 09:19:00;;;;;;;3.33;1.55;;;;;;;20.73;64.04;93176.66;5011355;28;20073;-70
2022/09/15 09:21:36;;;;;;;2.67;1.20;;;;;;;20.45;65.51;93176.50;5002626;28;20949;-67
2022/09/15 09:24:11;;;;;;;3.05;1.23;;;;;;;19.64;66.76;93177.63;5008066;28;20073;-67
2022/09/15 09:26:39;;;;;;;2.92;1.50;;;;;;;19.91;66.47;93168.78;5011207;28;20046;-66
2022/09/15 09:29:15;;;;;;;3.42;1.60;;;;;;;20.15;67.36;93165.66;5010049;28;20095;-68
2022/09/15 09:31:44;;;;;;;2.78;1.50;;;;;;;21.29;62.46;93167.75;5011060;28;20502;-66
2022/09/15 09:34:16;;;;;;;2.60;1.40;;;;;;;23.56;56.60;93159.75;5010188;28;20045;-67
2022/09/15 09:36:43;;;;;;;2.30;1.20;;;;;;;25.78;50.07;93161.31;5010396;28;20050;-67
2022/09/15 09:39:14;;;;;;;2.83;1.10;;;;;;;26.13;48.29;93145.44;4996108;28;20050;-70
2022/09/15 09:41:41;;;;;;;3.00;1.10;;;;;;;23.13;56.25;93147.75;5005510;28;20112;-68
2022/09/15 09:44:13;;;;;;;2.95;1.33;;;;;;;22.05;59.35;93146.47;5010070;28;20076;-72
2022/09/15 09:46:41;;;;;;;3.10;1.40;;;;;;;21.08;61.24;93144.84;5009715;28;20048;-67
2022/09/15 09:49:22;;;;;;;2.05;1.13;;;;;;;20.46;62.76;93152.16;5010145;28;20072;-70
2022/09/15 09:51:54;;;;;;;2.95;1.20;;;;;;;19.75;64.99;93158.28;5010712;28;20045;-67
2022/09/15 09:54:27;;;;;;;2.53;1.20;;;;;;;19.98;63.79;93147.31;5010117;28;20042;-67
2022/09/15 09:56:55;;;;;;;2.85;1.20;;;;;;;19.53;64.67;93150.47;5010866;28;20045;-67
2022/09/15 09:59:31;;;;;;;3.30;1.10;;;;;;;19.39;65.51;93143.78;5009981;28;20226;-67
2022/09/15 10:02:04;;;;;;;3.17;1.40;;;;;;;19.60;65.15;93146.47;5010153;28;20048;-64
2022/09/15 10:04:31;;;;;;;2.00;1.17;;;;;;;19.49;66.31;93145.13;5010564;28;20406;-67
2022/09/15 10:06:58;;;;;;;2.20;0.90;;;;;;;19.09;66.63;93146.00;5010739;28;20044;-67
2022/09/15 10:09:25;;;;;;;2.40;1.20;;;;;;;19.18;66.87;93139.53;5009576;28;20133;-67
2022/09/15 10:12:02;;;;;;;3.23;1.23;;;;;;;18.97;67.39;93142.34;5010274;28;20048;-65
2022/09/15 10:14:39;;;;;;;3.65;1.20;;;;;;;18.88;68.06;93140.47;5009810;28;20056;-67
2022/09/15 10:17:18;;;;;;;2.13;1.20;;;;;;;18.69;69.12;93142.00;5009946;28;20418;-67
2022/09/15 10:19:47;;;;;;;2.83;1.20;;;;;;;18.52;69.04;93139.00;5010433;28;20049;-67
2022/09/15 10:22:30;;;;;;;2.40;1.20;;;;;;;18.59;68.46;93135.81;5009433;28;20119;-67
2022/09/15 10:24:59;;;;;;;3.47;1.17;;;;;;;18.70;68.54;93141.50;5010526;28;20479;-67
2022/09/15 10:27:34;;;;;;;2.70;1.10;;;;;;;19.52;65.34;93135.81;5009251;28;21642;-68
2022/09/15 10:30:13;;;;;;;2.55;1.25;;;;;;;19.58;65.34;93135.84;5008559;28;20093;-65
2022/09/15 10:32:42;;;;;;;2.30;1.17;;;;;;;19.84;65.78;93135.06;5010223;28;20449;-67
2022/09/15 10:35:12;;;;;;;2.85;1.35;;;;;;;19.99;64.01;93132.13;5009620;28;20038;-67
2022/09/15 10:37:47;;;;;;;4.13;1.20;;;;;;;19.69;64.59;93124.78;5010383;28;20050;-68
2022/09/15 10:40:31;;;;;;;2.50;1.20;;;;;;;19.30;66.67;93130.81;5009504;28;20049;-67
2022/09/15 10:43:21;;;;;;;2.45;1.25;;;;;;;18.99;67.94;93136.28;5007620;28;20048;-64
2022/09/15 10:45:55;;;;;;;3.03;1.10;;;;;;;19.01;68.05;93142.13;5002099;28;20049;-69
2022/09/15 10:48:42;;;;;;;2.70;1.13;;;;;;;18.96;67.74;93138.81;5009626;28;20044;-67
2022/09/15 10:51:46;;;;;;;2.20;1.00;;;;;;;19.20;67.75;93131.47;5009184;28;20068;-66
2022/09/15 10:54:13;;;;;;;2.40;1.10;;;;;;;19.01;68.88;93144.91;4996698;28;20073;-69
2022/09/15 10:56:45;;;;;;;3.15;1.48;;;;;;;19.45;66.86;93127.88;5007343;28;20515;-67
2022/09/15 10:59:36;;;;;;;2.40;1.10;;;;;;;19.54;66.21;93132.53;5007524;28;20041;-71
2022/09/15 11:02:15;;;;;;;3.17;1.10;;;;;;;19.34;66.43;93136.16;4999997;28;20791;-66
2022/09/15 11:05:10;;;;;;;3.53;1.13;;;;;;;19.18;68.09;93134.72;5009060;28;20038;-67
2022/09/15 11:07:40;;;;;;;2.42;1.02;;;;;;;19.15;66.82;93132.91;5007179;28;22018;-66
2022/09/15 11:10:35;;;;;;;3.30;1.10;;;;;;;18.86;68.12;93128.31;5008710;28;20398;-66
2022/09/15 11:13:28;;;;;;;2.40;1.00;;;;;;;19.50;66.19;93132.75;4969431;28;20514;-66
2022/09/15 11:16:21;;;;;;;2.97;1.20;;;;;;;19.87;65.27;93132.06;5005458;28;20038;-65
2022/09/15 11:19:20;;;;;;;1.93;0.90;;;;;;;19.97;64.36;93129.09;4974117;28;21680;-68
2022/09/15 11:21:55;;;;;;;2.50;1.20;;;;;;;20.04;64.77;93131.41;5008372;28;20070;-69
2022/09/15 11:24:38;;;;;;;3.75;1.10;;;;;;;19.78;65.21;93135.03;5008188;28;20371;-66
2022/09/15 11:27:15;;;;;;;2.42;0.82;;;;;;;20.13;63.84;93136.78;5012272;28;20044;-67
2022/09/15 11:30:04;;;;;;;3.00;1.20;;;;;;;20.48;61.84;93144.06;5013118;28;20099;-66
2022/09/15 11:32:40;;;;;;;2.30;0.90;;;;;;;20.64;62.21;93137.84;5011463;28;20045;-68
2022/09/15 11:35:29;;;;;;;2.35;1.00;;;;;;;20.60;60.48;93142.88;5011798;28;20752;-68
2022/09/15 11:38:41;;;;;;;2.72;1.00;;;;;;;20.84;60.63;93141.72;5012563;28;20056;-66
2022/09/15 11:41:33;;;;;;;2.10;1.08;;;;;;;22.08;56.91;93147.53;5001564;28;20061;-66
2022/09/15 11:44:18;;;;;;;2.63;0.93;;;;;;;21.60;57.57;93142.94;5012310;28;20104;-66
2022/09/15 11:47:21;;;;;;;2.40;1.03;;;;;;;20.91;58.85;93136.44;5011991;28;20124;-67
2022/09/15 11:50:15;;;;;;;6.10;1.15;;;;;;;20.99;57.75;93136.72;5011863;28;20042;-66
2022/09/15 11:52:46;;;;;;;2.75;1.10;;;;;;;21.13;57.32;93134.97;5011485;28;21028;-65
2022/09/15 11:55:31;;;;;;;2.95;0.90;;;;;;;21.36;57.34;93138.56;5011547;28;20103;-64
2022/09/15 11:58:18;;;;;;;2.85;1.10;;;;;;;21.63;57.03;93137.13;5010943;28;20124;-64
2022/09/15 12:00:59;;;;;;;1.80;0.80;;;;;;;20.71;58.85;93133.81;5012133;28;20034;-67
2022/09/15 12:03:34;;;;;;;2.97;0.95;;;;;;;21.02;58.67;93141.28;5011408;28;20388;-67